Time;durP1;ratioP1;P1;durP2;ratioP2;P2;SDS_P1;SDS_P2;PMS_P1;PMS_P2;Temp;Humidity;BMP_temperature;BMP_pressure;BME280_temperature;BME280_humidity;BME280_pressure;Samples;Min_cycle;Max_cycle;Signal;HPM_P1;HPM_P2
2022/08/26 00:00:33;;;;;;;0.00;0.00;;;;;;;20.50;50.94;101230.47;7360706;19;20469;-67
2022/08/26 00:02:59;;;;;;;0.00;0.00;;;;;;;20.43;51.45;101209.56;7363818;19;20014;-67
2022/08/26 00:05:25;;;;;;;0.00;0.00;;;;;;;20.46;52.00;101214.69;7362614;19;20011;-67
2022/08/26 00:07:51;;;;;;;0.00;0.00;;;;;;;20.45;51.41;101217.41;7367558;19;20014;-67
2022/08/26 00:10:17;;;;;;;0.00;0.00;;;;;;;20.43;51.53;101220.16;7366388;19;20018;-67
2022/08/26 00:12:43;;;;;;;0.00;0.00;;;;;;;20.28;51.57;101196.28;7370149;19;20360;-67
2022/08/26 00:15:10;;;;;;;0.03;0.03;;;;;;;20.40;51.51;101215.00;7365984;19;20948;-67
2022/08/26 00:17:36;;;;;;;0.00;0.00;;;;;;;20.37;51.64;101217.81;7366805;19;20738;-67
2022/08/26 00:20:04;;;;;;;0.10;0.10;;;;;;;20.38;51.20;101214.25;7366754;19;20006;-67
2022/08/26 00:22:30;;;;;;;0.00;0.00;;;;;;;20.37;51.62;101217.81;7367894;19;20011;-67
2022/08/26 00:24:55;;;;;;;0.00;0.00;;;;;;;20.36;51.58;101216.13;7367331;19;20017;-67
2022/08/26 00:27:21;;;;;;;0.00;0.00;;;;;;;20.33;51.45;101218.97;7369317;19;20110;-67
2022/08/26 00:29:46;;;;;;;0.00;0.00;;;;;;;20.25;51.64;101210.56;7365514;19;20024;-67
2022/08/26 00:32:12;;;;;;;0.00;0.00;;;;;;;20.26;51.95;101206.97;7365213;19;20040;-67
2022/08/26 00:34:37;;;;;;;0.00;0.00;;;;;;;20.22;51.92;101210.72;7367181;19;20003;-67
2022/08/26 00:37:03;;;;;;;0.00;0.00;;;;;;;20.22;51.96;101210.72;7365556;19;20013;-67
2022/08/26 00:39:28;;;;;;;0.00;0.00;;;;;;;20.20;52.18;101207.31;7366964;19;20054;-67
2022/08/26 00:41:53;;;;;;;0.00;0.00;;;;;;;20.17;51.91;101200.38;7364682;19;20022;-67
2022/08/26 00:44:20;;;;;;;0.00;0.00;;;;;;;20.02;52.41;101187.09;7366699;19;20113;-67
2022/08/26 00:46:50;;;;;;;0.00;0.00;;;;;;;20.15;51.93;101198.75;7363843;19;20006;-67
2022/08/26 00:49:29;;;;;;;0.00;0.00;;;;;;;20.14;51.38;101186.44;7367284;19;20292;-67
2022/08/26 00:51:59;;;;;;;0.00;0.00;;;;;;;20.12;52.45;101183.00;7366600;19;20034;-67
2022/08/26 00:54:28;;;;;;;0.00;0.00;;;;;;;20.08;52.74;101170.88;7365729;19;20014;-67
2022/08/26 00:56:59;;;;;;;0.00;0.00;;;;;;;20.12;52.31;101177.69;7364684;19;20475;-67
2022/08/26 00:59:25;;;;;;;0.00;0.00;;;;;;;20.08;52.71;101176.16;7365335;19;20549;-67
2022/08/26 01:01:51;;;;;;;0.00;0.00;;;;;;;20.06;52.65;101185.97;7366752;19;20010;-68
2022/08/26 01:04:19;;;;;;;0.00;0.00;;;;;;;20.03;52.57;101180.88;7364725;19;20006;-67
2022/08/26 01:06:47;;;;;;;0.00;0.00;;;;;;;20.00;52.71;101200.44;7365537;19;20010;-67
2022/08/26 01:09:13;;;;;;;0.00;0.00;;;;;;;19.93;53.14;101202.56;7366102;19;20443;-67
2022/08/26 01:11:39;;;;;;;0.00;0.00;;;;;;;19.87;53.35;101192.31;7365961;19;20050;-68
2022/08/26 01:14:06;;;;;;;0.00;0.00;;;;;;;19.80;53.27;101193.53;7363260;19;20035;-67
2022/08/26 01:16:34;;;;;;;0.00;0.00;;;;;;;19.75;53.26;101200.03;7364714;19;20033;-66
2022/08/26 01:19:14;;;;;;;0.00;0.00;;;;;;;19.70;52.74;101203.78;7367507;19;20018;-67
2022/08/26 01:21:48;;;;;;;0.00;0.00;;;;;;;19.64;53.25;101203.25;7364207;19;21300;-67
2022/08/26 01:24:13;;;;;;;0.00;0.00;;;;;;;19.55;54.09;101209.00;7361696;19;20017;-67
2022/08/26 01:26:41;;;;;;;0.00;0.00;;;;;;;19.47;53.72;101200.59;7367385;19;20010;-67
2022/08/26 01:29:13;;;;;;;0.00;0.00;;;;;;;19.45;53.42;101209.47;7362074;19;20094;-67
2022/08/26 01:31:44;;;;;;;0.00;0.00;;;;;;;19.40;53.94;101216.78;7365402;19;20022;-67
2022/08/26 01:34:17;;;;;;;0.00;0.00;;;;;;;19.35;53.84;101212.66;7363478;19;20014;-67
2022/08/26 01:36:44;;;;;;;0.00;0.00;;;;;;;19.30;54.22;101212.91;7365098;19;20344;-68
2022/08/26 01:39:10;;;;;;;0.00;0.00;;;;;;;19.25;55.17;101212.28;7364859;19;20042;-66
2022/08/26 01:41:37;;;;;;;0.00;0.00;;;;;;;19.23;55.13;101214.16;7364650;19;20027;-67
2022/08/26 01:44:05;;;;;;;0.00;0.00;;;;;;;19.23;55.04;101215.94;7362734;19;20574;-68
2022/08/26 01:46:31;;;;;;;0.10;0.10;;;;;;;19.21;54.92;101220.44;7367706;19;20010;-67
2022/08/26 01:49:00;;;;;;;0.00;0.00;;;;;;;18.92;55.03;101168.03;7360869;19;20007;-67
2022/08/26 01:51:26;;;;;;;0.00;0.00;;;;;;;19.22;55.06;101223.03;7363536;19;20112;-67
2022/08/26 01:53:52;;;;;;;0.00;0.00;;;;;;;19.12;55.38;101212.06;7364053;19;20017;-68
2022/08/26 01:56:21;;;;;;;0.00;0.00;;;;;;;19.24;54.82;101222.94;7362706;19;20019;-67
2022/08/26 01:58:51;;;;;;;0.00;0.00;;;;;;;19.25;55.43;101225.50;7353959;19;20086;-66
2022/08/26 02:01:17;;;;;;;0.00;0.00;;;;;;;19.26;55.86;101229.00;7365016;19;20010;-68
2022/08/26 02:04:00;;;;;;;0.00;0.00;;;;;;;19.28;53.90;101224.50;7361623;19;20014;-67
2022/08/26 02:06:26;;;;;;;0.05;0.05;;;;;;;19.30;55.56;101234.09;7360319;19;20011;-67
2022/08/26 02:08:55;;;;;;;0.00;0.00;;;;;;;19.34;55.19;101240.09;7362722;19;20031;-68
2022/08/26 02:11:22;;;;;;;0.10;0.10;;;;;;;19.32;55.06;101240.19;7360990;19;20013;-67
2022/08/26 02:13:52;;;;;;;0.00;0.00;;;;;;;19.35;55.61;101240.00;7356410;19;20030;-66
2022/08/26 02:16:23;;;;;;;0.00;0.00;;;;;;;19.37;56.47;101238.16;7361045;19;25465;-67
2022/08/26 02:18:49;;;;;;;0.00;0.00;;;;;;;19.33;59.52;101247.19;7362493;19;20013;-67
2022/08/26 02:21:15;;;;;;;0.00;0.00;;;;;;;19.19;60.35;101220.53;7361949;19;20051;-68
2022/08/26 02:23:41;;;;;;;0.00;0.00;;;;;;;19.24;60.06;101242.34;7360609;19;20982;-67
2022/08/26 02:26:14;;;;;;;0.00;0.00;;;;;;;19.19;59.64;101239.91;7356919;19;20014;-68
2022/08/26 02:28:49;;;;;;;0.00;0.00;;;;;;;19.15;57.96;101234.84;7357124;19;20804;-68
2022/08/26 02:31:15;;;;;;;0.00;0.00;;;;;;;19.09;59.79;101243.09;7363029;19;20010;-67
2022/08/26 02:33:40;;;;;;;0.00;0.00;;;;;;;19.04;59.59;101239.81;7357865;19;20018;-67
2022/08/26 02:36:06;;;;;;;0.00;0.00;;;;;;;18.92;59.80;101226.28;7360114;19;20097;-67
2022/08/26 02:38:33;;;;;;;0.00;0.00;;;;;;;18.97;60.12;101238.44;7360305;19;20071;-68
2022/08/26 02:40:58;;;;;;;0.00;0.00;;;;;;;18.92;60.08;101236.84;7361591;19;20010;-67
2022/08/26 02:43:24;;;;;;;0.00;0.00;;;;;;;18.87;59.41;101232.72;7359009;19;20002;-67
2022/08/26 02:45:49;;;;;;;0.00;0.00;;;;;;;18.77;59.84;101216.44;7360711;19;20514;-67
2022/08/26 02:48:18;;;;;;;0.00;0.00;;;;;;;18.87;59.94;101238.88;7360124;19;20023;-67
2022/08/26 02:50:44;;;;;;;0.00;0.00;;;;;;;18.87;59.23;101238.88;7358537;19;20683;-68
2022/08/26 02:53:11;;;;;;;0.00;0.00;;;;;;;18.81;60.28;101233.88;7361737;19;20044;-67
2022/08/26 02:55:36;;;;;;;0.10;0.10;;;;;;;18.86;59.76;101237.16;7360229;19;20833;-68
2022/08/26 02:58:04;;;;;;;0.00;0.00;;;;;;;18.80;59.52;101226.84;7360563;19;20081;-67
2022/08/26 03:00:31;;;;;;;0.00;0.00;;;;;;;18.86;59.71;101237.16;7356767;19;20098;-67
2022/08/26 03:02:57;;;;;;;0.00;0.00;;;;;;;18.87;59.08;101241.53;7361649;19;20014;-67
2022/08/26 03:05:23;;;;;;;0.00;0.00;;;;;;;18.87;59.23;101244.16;7347181;19;20018;-67
2022/08/26 03:07:49;;;;;;;0.00;0.00;;;;;;;18.83;59.36;101242.59;7361637;19;20824;-67
2022/08/26 03:10:15;;;;;;;0.00;0.00;;;;;;;18.88;60.01;101248.53;7359110;19;20006;-67
2022/08/26 03:12:42;;;;;;;0.00;0.00;;;;;;;18.77;59.13;101231.47;7360601;19;20030;-67
2022/08/26 03:15:08;;;;;;;0.00;0.00;;;;;;;18.89;59.45;101246.72;7359220;19;20467;-67
2022/08/26 03:17:33;;;;;;;0.00;0.00;;;;;;;18.85;59.52;101240.72;7357595;19;20027;-67
2022/08/26 03:19:59;;;;;;;0.00;0.00;;;;;;;18.91;59.83;101245.75;7352928;19;20003;-67
2022/08/26 03:22:25;;;;;;;0.00;0.00;;;;;;;18.93;58.95;101241.22;7361111;19;20021;-67
2022/08/26 03:24:51;;;;;;;0.00;0.00;;;;;;;18.97;59.52;101241.06;7360072;19;20382;-67
2022/08/26 03:27:17;;;;;;;0.00;0.00;;;;;;;18.99;59.67;101242.69;7361336;19;20014;-67
2022/08/26 03:30:43;;;;;;;0.00;0.00;;;;;;;19.02;58.99;101241.72;7362706;19;20019;-68
2022/08/26 03:32:37;;;;;;;0.00;0.00;;;;;;;19.04;59.73;101242.47;7259043;19;2004703;-68
2022/08/26 03:35:05;;;;;;;0.00;0.00;;;;;;;19.05;59.30;101237.09;7358202;19;20014;-67
2022/08/26 03:37:31;;;;;;;0.10;0.10;;;;;;;19.06;59.49;101233.53;7359383;19;20011;-67
2022/08/26 03:39:56;;;;;;;0.00;0.00;;;;;;;18.99;59.46;101220.66;7361501;19;20775;-67
2022/08/26 03:42:22;;;;;;;0.00;0.00;;;;;;;19.06;59.81;101237.94;7360346;19;20014;-67
2022/08/26 03:44:48;;;;;;;0.00;0.00;;;;;;;19.06;59.82;101228.25;7356238;19;20700;-67
2022/08/26 03:47:14;;;;;;;0.00;0.00;;;;;;;19.01;60.11;101224.97;7361469;19;20019;-67
2022/08/26 03:49:40;;;;;;;0.00;0.00;;;;;;;19.04;59.96;101234.53;7358626;19;20889;-67
2022/08/26 03:52:06;;;;;;;0.00;0.00;;;;;;;18.80;59.75;101197.75;7360638;19;20109;-67
2022/08/26 03:54:31;;;;;;;0.00;0.00;;;;;;;18.99;59.93;101231.25;7360598;19;20038;-68
2022/08/26 03:56:57;;;;;;;0.00;0.00;;;;;;;18.97;60.19;101227.84;7360535;19;20017;-67
2022/08/26 03:59:22;;;;;;;0.00;0.00;;;;;;;19.00;60.23;101233.81;7358690;19;20007;-67
2022/08/26 04:01:48;;;;;;;0.00;0.00;;;;;;;18.97;60.57;101226.06;7360748;19;21830;-67
2022/08/26 04:04:13;;;;;;;0.00;0.00;;;;;;;18.86;60.67;101210.69;7359627;19;20952;-68
2022/08/26 04:06:42;;;;;;;0.00;0.00;;;;;;;18.98;60.04;101226.91;7361788;19;20014;-67
2022/08/26 04:09:11;;;;;;;0.00;0.00;;;;;;;18.93;60.40;101220.03;7360171;19;20045;-67
2022/08/26 04:11:38;;;;;;;0.00;0.00;;;;;;;18.83;60.84;101216.13;7360402;19;20014;-66
2022/08/26 04:14:07;;;;;;;0.00;0.00;;;;;;;18.88;60.05;101223.84;7366339;19;20002;-67
2022/08/26 04:16:33;;;;;;;0.00;0.00;;;;;;;18.85;60.70;101224.84;7367478;19;20049;-68
2022/08/26 04:18:58;;;;;;;0.03;0.03;;;;;;;18.82;60.77;101222.38;7369396;19;20121;-68
2022/08/26 04:21:25;;;;;;;0.00;0.00;;;;;;;18.87;60.15;101232.72;7366786;19;20044;-67
2022/08/26 04:23:50;;;;;;;0.00;0.00;;;;;;;18.79;60.31;101209.28;7367948;19;20026;-66
2022/08/26 04:26:18;;;;;;;0.00;0.00;;;;;;;18.87;59.71;101223.00;7366134;19;21731;-67
2022/08/26 04:28:45;;;;;;;0.00;0.00;;;;;;;18.86;59.77;101225.72;7366687;19;20006;-67
2022/08/26 04:31:15;;;;;;;0.00;0.00;;;;;;;18.83;59.42;101224.06;7367572;19;20021;-67
2022/08/26 04:33:42;;;;;;;0.00;0.00;;;;;;;18.81;59.39;101235.69;7365843;19;20014;-67
2022/08/26 04:36:08;;;;;;;0.00;0.00;;;;;;;18.76;59.76;101224.47;7364085;19;20026;-67
2022/08/26 04:38:34;;;;;;;0.00;0.00;;;;;;;18.64;59.81;101224.06;7368145;19;20680;-67
2022/08/26 04:41:00;;;;;;;0.00;0.00;;;;;;;18.60;59.61;101226.91;7367070;19;20499;-68
2022/08/26 04:43:29;;;;;;;0.00;0.00;;;;;;;18.61;59.87;101236.59;7366912;19;20045;-68
2022/08/26 04:45:56;;;;;;;0.00;0.00;;;;;;;18.54;59.83;101232.50;7366622;19;20561;-67
2022/08/26 04:48:21;;;;;;;0.00;0.00;;;;;;;18.51;59.82;101235.31;7367356;19;20105;-67
2022/08/26 04:50:50;;;;;;;0.00;0.00;;;;;;;18.45;60.22;101230.28;7363741;19;20020;-67
2022/08/26 04:53:15;;;;;;;0.00;0.00;;;;;;;18.35;60.29;101224.59;7361642;19;20485;-68
2022/08/26 04:55:41;;;;;;;0.00;0.00;;;;;;;18.35;60.06;101225.47;7366497;19;20006;-67
2022/08/26 04:58:07;;;;;;;0.00;0.00;;;;;;;18.30;60.29;101231.91;7367276;19;20010;-68
2022/08/26 05:00:33;;;;;;;0.00;0.00;;;;;;;18.26;60.63;101236.47;7366971;19;20010;-68
2022/08/26 05:02:59;;;;;;;0.00;0.00;;;;;;;18.11;60.88;101222.16;7364299;19;20459;-67
2022/08/26 05:05:25;;;;;;;0.00;0.00;;;;;;;18.18;61.31;101238.59;7364491;19;20013;-68
2022/08/26 05:07:50;;;;;;;0.00;0.00;;;;;;;18.15;61.89;101238.75;7365280;19;20036;-68
2022/08/26 05:10:15;;;;;;;0.00;0.00;;;;;;;18.13;61.77;101243.22;7364928;19;20010;-67
2022/08/26 05:12:41;;;;;;;0.00;0.00;;;;;;;18.05;62.62;101233.00;7365120;19;20015;-67
2022/08/26 05:15:07;;;;;;;0.00;0.00;;;;;;;18.08;62.24;101253.16;7365956;19;20499;-67
2022/08/26 05:17:32;;;;;;;0.00;0.00;;;;;;;18.06;62.90;101244.44;7363617;19;20036;-67
2022/08/26 05:19:58;;;;;;;0.00;0.00;;;;;;;18.04;63.16;101251.56;7365311;19;20010;-67
2022/08/26 05:22:23;;;;;;;0.00;0.00;;;;;;;18.00;63.47;101250.88;7364615;19;20459;-67
2022/08/26 05:24:52;;;;;;;0.00;0.00;;;;;;;17.98;63.40;101249.19;7364603;19;20013;-68
2022/08/26 05:27:18;;;;;;;0.00;0.00;;;;;;;17.94;64.08;101251.13;7362366;19;20007;-67
2022/08/26 05:29:43;;;;;;;0.00;0.00;;;;;;;17.91;63.84;101250.41;7366031;19;20503;-68
2022/08/26 05:32:09;;;;;;;0.00;0.00;;;;;;;17.88;63.96;101252.25;7365019;19;20014;-67
2022/08/26 05:34:36;;;;;;;0.00;0.00;;;;;;;17.86;64.28;101247.97;7365853;19;21215;-68
2022/08/26 05:37:01;;;;;;;0.00;0.00;;;;;;;17.84;64.35;101255.97;7362807;19;20884;-68
2022/08/26 05:39:27;;;;;;;0.00;0.00;;;;;;;17.82;64.19;101257.81;7364062;19;20010;-67
2022/08/26 05:41:52;;;;;;;0.00;0.00;;;;;;;17.80;64.47;101256.16;7365434;19;20367;-67
2022/08/26 05:44:19;;;;;;;0.00;0.00;;;;;;;17.76;64.51;101260.72;7365042;19;20053;-67
2022/08/26 05:46:45;;;;;;;0.00;0.00;;;;;;;17.74;64.45;101252.03;7366874;19;20329;-68
2022/08/26 05:49:15;;;;;;;0.00;0.00;;;;;;;17.73;64.17;101258.19;7365505;19;20010;-67
2022/08/26 05:51:48;;;;;;;0.00;0.00;;;;;;;17.70;64.17;101271.53;7366863;19;20014;-67
2022/08/26 05:54:17;;;;;;;0.00;0.00;;;;;;;17.69;64.90;101267.19;7362321;19;20014;-67
2022/08/26 05:56:42;;;;;;;0.00;0.00;;;;;;;17.70;64.76;101273.31;7366012;19;20007;-67
2022/08/26 05:59:12;;;;;;;0.00;0.00;;;;;;;17.69;64.50;101269.81;7350579;19;20011;-67
2022/08/26 06:01:38;;;;;;;0.03;0.03;;;;;;;17.74;65.46;101269.63;7363138;19;20014;-68
2022/08/26 06:04:06;;;;;;;0.00;0.00;;;;;;;17.76;65.08;101279.22;7361029;19;20599;-67
2022/08/26 06:06:34;;;;;;;0.00;0.00;;;;;;;17.79;65.15;101284.38;7363434;19;20015;-67
2022/08/26 06:09:04;;;;;;;0.00;0.00;;;;;;;17.75;65.61;101277.50;7361364;19;20695;-68
2022/08/26 06:11:31;;;;;;;0.00;0.00;;;;;;;17.71;65.07;101264.47;7362466;19;20046;-67
2022/08/26 06:14:00;;;;;;;0.00;0.00;;;;;;;17.79;65.15;101284.38;7358471;19;20023;-67
2022/08/26 06:16:28;;;;;;;0.00;0.00;;;;;;;17.83;65.16;101295.66;7359723;19;20017;-68
2022/08/26 06:18:54;;;;;;;0.00;0.00;;;;;;;17.81;65.17;101290.44;7361047;19;20854;-66
2022/08/26 06:21:24;;;;;;;0.00;0.00;;;;;;;17.81;64.67;101287.81;7362669;19;20006;-68
2022/08/26 06:26:36;;;;;;;0.00;0.00;;;;;;;17.79;65.52;101292.31;7360957;19;20024;-67
2022/08/26 06:29:04;;;;;;;0.10;0.10;;;;;;;17.81;65.26;101290.44;7361101;19;20022;-66
2022/08/26 06:31:30;;;;;;;;;;;;;;;17.86;60.62;101300.81;7362684;19;20953;-67
2022/08/26 06:33:57;;;;;;;0.00;0.00;;;;;;;17.82;64.44;101292.16;7360395;19;20344;-67
2022/08/26 06:36:24;;;;;;;0.00;0.00;;;;;;;17.77;65.07;101282.72;7361727;19;20036;-67
2022/08/26 06:38:51;;;;;;;0.00;0.00;;;;;;;17.77;65.22;101286.22;7361133;19;20817;-67
2022/08/26 06:41:19;;;;;;;0.10;0.10;;;;;;;17.81;65.60;101298.38;7361960;19;20014;-66
2022/08/26 06:43:45;;;;;;;0.00;0.00;;;;;;;17.80;65.53;101299.28;7359341;19;20625;-67
2022/08/26 06:46:13;;;;;;;0.00;0.00;;;;;;;17.84;65.72;101303.53;7362301;19;20561;-68
2022/08/26 06:48:39;;;;;;;0.00;0.00;;;;;;;17.83;65.96;101301.78;7352985;19;20026;-66
2022/08/26 06:51:12;;;;;;;0.00;0.00;;;;;;;17.89;64.75;101313.88;7357210;19;20007;-67
2022/08/26 06:53:38;;;;;;;0.00;0.00;;;;;;;17.86;65.44;101309.59;7360414;19;20628;-67
2022/08/26 06:56:06;;;;;;;0.10;0.10;;;;;;;17.86;64.99;101312.25;7357444;19;20163;-67
2022/08/26 06:58:32;;;;;;;;;;;;;;;17.92;61.33;101315.53;7358975;19;20013;-67
2022/08/26 07:00:57;;;;;;;0.00;0.00;;;;;;;17.87;64.64;101316.59;7355805;19;19922;-67
2022/08/26 07:03:22;;;;;;;0.00;0.00;;;;;;;17.87;65.11;101319.22;7362969;19;20036;-67
2022/08/26 07:05:48;;;;;;;0.00;0.00;;;;;;;17.84;65.00;101322.03;7358960;19;20100;-67
2022/08/26 07:08:14;;;;;;;0.00;0.00;;;;;;;17.79;64.89;101316.09;7360218;19;20477;-67
2022/08/26 07:10:41;;;;;;;0.00;0.00;;;;;;;17.85;65.14;101323.75;7356359;19;20017;-67
2022/08/26 07:13:07;;;;;;;0.00;0.00;;;;;;;17.92;64.98;101332.25;7358752;19;20090;-67
2022/08/26 07:15:34;;;;;;;0.00;0.00;;;;;;;17.93;65.27;101343.66;7357571;19;20538;-68
2022/08/26 07:18:00;;;;;;;0.10;0.10;;;;;;;17.95;65.12;101339.19;7364312;19;21196;-68
2022/08/26 07:20:25;;;;;;;0.00;0.00;;;;;;;17.96;65.28;101333.84;7357931;19;20006;-67
2022/08/26 07:22:51;;;;;;;0.00;0.00;;;;;;;17.98;65.27;101336.41;7359984;19;20736;-68
2022/08/26 07:25:19;;;;;;;0.00;0.00;;;;;;;17.95;64.95;101326.84;7355897;19;20518;-67
2022/08/26 07:27:45;;;;;;;0.00;0.00;;;;;;;17.86;64.74;101306.94;7357866;19;20032;-67
2022/08/26 07:30:10;;;;;;;0.08;0.08;;;;;;;18.03;65.21;101335.28;7355656;19;20014;-67
2022/08/26 07:32:36;;;;;;;0.00;0.00;;;;;;;18.05;65.35;101338.72;7357451;19;20010;-67
2022/08/26 07:35:03;;;;;;;0.00;0.00;;;;;;;17.84;65.13;101303.53;7355652;19;20036;-67
2022/08/26 07:37:29;;;;;;;0.00;0.00;;;;;;;18.03;65.54;101345.00;7354893;19;20007;-67
2022/08/26 07:39:54;;;;;;;0.00;0.00;;;;;;;18.00;65.45;101334.56;7358219;19;20010;-67
2022/08/26 07:42:20;;;;;;;0.10;0.10;;;;;;;17.96;65.62;101327.69;7360984;19;20118;-67
2022/08/26 07:44:45;;;;;;;0.00;0.00;;;;;;;18.05;65.67;101344.03;7359506;19;20014;-67
2022/08/26 07:47:11;;;;;;;0.00;0.00;;;;;;;18.09;65.34;101347.38;7360344;19;20019;-67
2022/08/26 07:49:37;;;;;;;0.00;0.00;;;;;;;18.13;65.47;101341.03;7366782;19;20089;-67
2022/08/26 07:52:03;;;;;;;0.00;0.00;;;;;;;18.17;65.04;101345.25;7348868;19;20007;-68
2022/08/26 07:54:28;;;;;;;0.00;0.00;;;;;;;18.20;65.42;101342.50;7356017;19;20003;-67
2022/08/26 07:56:54;;;;;;;0.00;0.00;;;;;;;18.18;65.38;101339.03;7351841;19;20011;-67
2022/08/26 07:59:20;;;;;;;0.00;0.00;;;;;;;18.19;65.18;101335.47;7355221;19;20022;-67
2022/08/26 08:01:45;;;;;;;0.00;0.00;;;;;;;18.32;64.66;101347.22;7348348;19;20049;-66
2022/08/26 08:04:16;;;;;;;0.00;0.00;;;;;;;18.38;64.45;101351.38;7349926;19;20043;-67
2022/08/26 08:06:42;;;;;;;0.00;0.00;;;;;;;18.39;64.71;101340.72;7353667;19;20473;-67
2022/08/26 08:09:08;;;;;;;0.00;0.00;;;;;;;18.42;65.34;101351.16;7352340;19;23121;-67
2022/08/26 08:11:33;;;;;;;0.00;0.00;;;;;;;18.42;65.19;101337.94;7353745;19;20011;-67
2022/08/26 08:14:00;;;;;;;0.00;0.00;;;;;;;18.51;65.05;101335.81;7355879;19;20006;-67
2022/08/26 08:16:27;;;;;;;0.00;0.00;;;;;;;18.57;64.92;101341.69;7354882;19;20011;-67
2022/08/26 08:18:56;;;;;;;0.00;0.00;;;;;;;18.60;64.63;101340.66;7356113;19;20022;-66
2022/08/26 08:21:23;;;;;;;0.00;0.00;;;;;;;18.70;64.58;101349.94;7354779;19;20014;-67
2022/08/26 08:23:50;;;;;;;;;;;;;;;18.80;61.92;101347.72;7357242;19;20035;-67
2022/08/26 08:26:16;;;;;;;0.00;0.00;;;;;;;18.80;63.93;101348.56;7353707;19;20707;-67
2022/08/26 08:28:41;;;;;;;0.00;0.00;;;;;;;18.81;63.64;101345.03;7354380;19;20025;-67
2022/08/26 08:31:07;;;;;;;0.08;0.08;;;;;;;18.88;64.41;101345.59;7355002;19;20014;-67
2022/08/26 08:33:33;;;;;;;0.00;0.00;;;;;;;18.89;63.75;101348.16;7355036;19;20010;-67
2022/08/26 08:36:00;;;;;;;0.05;0.05;;;;;;;18.90;63.68;101352.50;7353834;19;20010;-67
2022/08/26 08:38:28;;;;;;;0.00;0.00;;;;;;;18.89;63.97;101337.56;7354824;19;20109;-67
2022/08/26 08:40:53;;;;;;;0.10;0.10;;;;;;;19.03;63.49;101354.59;7354550;19;20485;-67
2022/08/26 08:43:51;;;;;;;0.00;0.00;;;;;;;19.10;63.43;101361.28;7355455;19;20019;-67
2022/08/26 08:46:18;;;;;;;0.05;0.05;;;;;;;19.10;63.10;101356.84;7252850;19;2004445;-66
2022/08/26 08:48:48;;;;;;;0.10;0.10;;;;;;;19.17;62.56;101368.88;7355363;19;20026;-67
2022/08/26 08:51:46;;;;;;;0.10;0.10;;;;;;;19.22;62.19;101355.44;7353290;19;20003;-67
2022/08/26 08:54:12;;;;;;;0.00;0.00;;;;;;;19.24;62.68;101364.16;7249791;19;2004487;-68
2022/08/26 08:56:46;;;;;;;0.00;0.00;;;;;;;19.31;62.38;101360.28;7355984;19;20060;-67
2022/08/26 08:59:16;;;;;;;0.00;0.00;;;;;;;19.32;62.40;101356.69;7340812;19;20014;-67
2022/08/26 09:01:50;;;;;;;0.00;0.00;;;;;;;19.40;61.43;101369.56;7346555;19;20032;-67
2022/08/26 09:04:28;;;;;;;0.10;0.10;;;;;;;19.44;61.00;101366.69;7342186;19;20750;-67
2022/08/26 09:06:58;;;;;;;0.00;0.00;;;;;;;19.35;61.55;101345.94;7351588;19;20544;-67
2022/08/26 09:09:39;;;;;;;0.00;0.00;;;;;;;19.50;61.27;101367.31;7353603;19;20530;-67
2022/08/26 09:12:14;;;;;;;0.05;0.05;;;;;;;19.52;61.25;101368.13;7355780;19;20455;-67
2022/08/26 09:14:40;;;;;;;0.00;0.00;;;;;;;19.45;61.42;101367.53;7352917;19;20023;-68
2022/08/26 09:17:19;;;;;;;0.00;0.00;;;;;;;19.59;60.74;101372.16;7352896;19;20115;-67
2022/08/26 09:20:09;;;;;;;0.00;0.00;;;;;;;19.63;60.92;101371.97;7351744;19;20014;-68
2022/08/26 09:22:37;;;;;;;0.00;0.00;;;;;;;19.63;61.19;101371.13;7353854;19;21010;-67
2022/08/26 09:25:06;;;;;;;0.00;0.00;;;;;;;19.69;61.27;101371.66;7352187;19;20014;-67
2022/08/26 09:27:35;;;;;;;0.00;0.00;;;;;;;19.77;60.67;101373.94;7354569;19;25619;-67
2022/08/26 09:30:03;;;;;;;0.00;0.00;;;;;;;19.78;61.19;101383.59;7351313;19;20021;-67
2022/08/26 09:32:29;;;;;;;0.00;0.00;;;;;;;19.82;60.75;101387.81;7354611;19;20752;-67
2022/08/26 09:35:06;;;;;;;0.00;0.00;;;;;;;19.89;60.68;101383.91;7352476;19;20049;-68
2022/08/26 09:37:42;;;;;;;0.03;0.03;;;;;;;20.01;60.00;101386.88;7353297;19;20592;-68
2022/08/26 09:40:21;;;;;;;0.00;0.00;;;;;;;20.06;59.68;101395.44;7352577;19;20010;-67
2022/08/26 09:42:46;;;;;;;0.03;0.03;;;;;;;20.05;59.87;101396.38;7353736;19;20029;-67
2022/08/26 09:45:12;;;;;;;0.00;0.00;;;;;;;20.02;59.85;101384.16;7349019;19;20110;-67
2022/08/26 09:47:53;;;;;;;0.10;0.10;;;;;;;20.16;59.25;101394.03;7351732;19;20006;-67
2022/08/26 09:50:57;;;;;;;0.00;0.00;;;;;;;20.22;59.36;101391.06;7350383;19;20819;-68
2022/08/26 09:53:33;;;;;;;0.08;0.08;;;;;;;20.17;58.89;101372.75;7250592;19;2004128;-67
2022/08/26 09:56:16;;;;;;;0.00;0.00;;;;;;;20.34;59.10;101398.38;7348889;19;20102;-67
2022/08/26 09:58:44;;;;;;;0.05;0.05;;;;;;;20.32;58.85;101402.91;7350323;19;20018;-67
2022/08/26 10:01:26;;;;;;;0.00;0.00;;;;;;;20.41;58.37;101401.56;7350098;19;21033;-67
2022/08/26 10:03:55;;;;;;;0.00;0.00;;;;;;;20.38;58.22;101399.94;7351051;19;20014;-67
2022/08/26 10:06:27;;;;;;;0.10;0.10;;;;;;;20.43;57.99;101403.22;7350248;19;20585;-67
2022/08/26 10:08:58;;;;;;;0.10;0.10;;;;;;;20.44;58.35;101396.97;7346848;19;20029;-67
2022/08/26 10:11:35;;;;;;;0.00;0.00;;;;;;;20.40;58.08;101399.84;7352252;19;20014;-67
2022/08/26 10:14:08;;;;;;;0.00;0.00;;;;;;;20.44;58.08;101401.41;7350062;19;20595;-68
2022/08/26 10:16:58;;;;;;;0.05;0.05;;;;;;;20.49;57.69;101409.16;7349300;19;20023;-68
2022/08/26 10:19:33;;;;;;;0.00;0.00;;;;;;;20.46;57.91;101405.72;7341463;19;20011;-67
2022/08/26 10:22:10;;;;;;;0.00;0.00;;;;;;;20.49;57.68;101409.16;7352718;19;20010;-67
2022/08/26 10:24:43;;;;;;;0.10;0.10;;;;;;;20.51;57.63;101412.59;7352947;19;20758;-67
2022/08/26 10:27:23;;;;;;;0.10;0.10;;;;;;;20.51;57.94;101409.94;7349860;19;20015;-67
2022/08/26 10:29:53;;;;;;;0.00;0.00;;;;;;;20.45;57.71;101409.28;7350777;19;20023;-67
2022/08/26 10:32:37;;;;;;;0.10;0.10;;;;;;;20.40;58.12;101411.31;7352492;19;20043;-68
2022/08/26 10:35:06;;;;;;;0.00;0.00;;;;;;;20.40;58.24;101408.66;7349935;19;20014;-67
2022/08/26 10:37:36;;;;;;;0.00;0.00;;;;;;;20.44;58.01;101415.53;7351117;19;20043;-67
2022/08/26 10:40:09;;;;;;;0.03;0.03;;;;;;;20.47;58.07;101418.03;7350925;19;20917;-67
2022/08/26 10:42:47;;;;;;;0.00;0.00;;;;;;;20.47;58.22;101412.75;7352903;19;20010;-67
2022/08/26 10:45:17;;;;;;;0.00;0.00;;;;;;;20.54;57.78;101407.13;7348630;19;20010;-68
2022/08/26 10:47:57;;;;;;;0.00;0.00;;;;;;;20.59;57.73;101418.34;7349238;19;20010;-68
2022/08/26 10:50:29;;;;;;;0.00;0.00;;;;;;;20.57;58.02;101399.00;7347125;19;20011;-67
2022/08/26 10:53:00;;;;;;;0.00;0.00;;;;;;;20.73;57.36;101413.16;7339350;19;22269;-67
2022/08/26 10:55:41;;;;;;;0.10;0.10;;;;;;;20.76;57.47;101412.13;7348034;19;20574;-68
2022/08/26 10:58:34;;;;;;;0.10;0.10;;;;;;;20.78;56.47;101411.09;7351706;19;20010;-67
2022/08/26 11:01:41;;;;;;;0.10;0.10;;;;;;;20.80;57.01;101406.59;7250600;19;2004318;-67
2022/08/26 11:04:25;;;;;;;0.00;0.00;;;;;;;20.81;57.06;101415.41;7250552;19;2004167;-67
2022/08/26 11:07:31;;;;;;;0.10;0.10;;;;;;;20.90;56.89;101425.53;7348124;19;20099;-67
2022/08/26 11:10:09;;;;;;;0.10;0.10;;;;;;;20.82;56.29;101407.34;7247531;19;2004270;-67
2022/08/26 11:12:37;;;;;;;0.00;0.00;;;;;;;20.93;56.34;101423.56;7351141;19;20477;-67
2022/08/26 11:15:07;;;;;;;0.00;0.00;;;;;;;21.02;56.84;101418.69;7350538;19;20025;-67
2022/08/26 11:17:45;;;;;;;0.00;0.00;;;;;;;21.22;56.77;101421.94;7351121;19;20018;-67
2022/08/26 11:20:29;;;;;;;0.00;0.00;;;;;;;21.46;57.02;101419.75;7351370;19;20070;-68
2022/08/26 11:23:15;;;;;;;0.10;0.10;;;;;;;21.66;56.21;101425.72;7355462;19;20031;-68
2022/08/26 11:26:05;;;;;;;0.10;0.10;;;;;;;21.98;55.40;101422.03;7355523;19;20010;-68
2022/08/26 11:28:37;;;;;;;0.00;0.00;;;;;;;22.12;54.40;101428.38;7355159;19;20010;-67
2022/08/26 11:31:07;;;;;;;0.10;0.10;;;;;;;22.17;53.49;101419.19;7355387;19;20013;-67
2022/08/26 11:33:48;;;;;;;0.00;0.00;;;;;;;22.30;54.02;101423.75;7356345;19;20018;-68
2022/08/26 11:36:44;;;;;;;0.10;0.10;;;;;;;22.34;53.72;101417.31;7356710;19;20777;-67